createdAt,value
2022-08-02T00:00:41.132Z,3.70
2022-08-02T00:01:41.163Z,5.90
2022-08-02T00:02:41.122Z,3.20
2022-08-02T00:03:41.125Z,4.80
2022-08-02T00:04:41.122Z,7.20
2022-08-02T00:05:41.115Z,4.40
2022-08-02T00:06:41.112Z,3.00
2022-08-02T00:07:41.572Z,4.30
2022-08-02T00:08:41.106Z,4.20
2022-08-02T00:09:41.108Z,3.90
2022-08-02T00:10:41.103Z,5.00
2022-08-02T00:11:43.173Z,4.40
2022-08-02T00:12:41.096Z,3.60
2022-08-02T00:13:41.093Z,3.80
2022-08-02T00:14:41.095Z,6.00
2022-08-02T00:15:41.089Z,3.70
2022-08-02T00:16:41.082Z,4.50
2022-08-02T00:17:41.082Z,5.10
2022-08-02T00:18:41.081Z,4.10
2022-08-02T00:19:41.076Z,4.70
2022-08-02T00:20:41.077Z,3.80
2022-08-02T00:21:41.089Z,6.20
2022-08-02T00:22:41.069Z,4.80
2022-08-02T00:24:03.318Z,4.00
2022-08-02T00:24:41.063Z,4.70
2022-08-02T00:25:55.352Z,5.80
2022-08-02T00:26:41.057Z,4.30
2022-08-02T00:27:41.056Z,5.80
2022-08-02T00:28:41.051Z,6.70
2022-08-02T00:29:42.691Z,5.00
2022-08-02T00:30:41.049Z,4.50
2022-08-02T00:31:41.045Z,5.90
2022-08-02T00:32:41.038Z,6.10
2022-08-02T00:34:26.164Z,4.00
2022-08-02T00:34:41.035Z,4.50
2022-08-02T00:35:41.044Z,4.60
2022-08-02T00:36:41.030Z,7.10
2022-08-02T00:37:41.027Z,4.60
2022-08-02T00:38:41.027Z,4.00
2022-08-02T00:39:41.030Z,4.20
2022-08-02T00:40:41.020Z,5.40
2022-08-02T00:41:41.019Z,3.90
2022-08-02T00:42:41.017Z,4.70
2022-08-02T00:43:41.014Z,5.10
2022-08-02T00:44:41.008Z,4.80
2022-08-02T00:46:03.486Z,5.50
2022-08-02T00:46:41.005Z,6.00
2022-08-02T00:47:41.007Z,5.00
2022-08-02T00:48:43.099Z,4.10
2022-08-02T00:49:41.125Z,5.30
2022-08-02T00:50:40.993Z,3.60
2022-08-02T00:51:40.991Z,4.90
2022-08-02T00:52:40.986Z,4.30
2022-08-02T00:53:40.982Z,5.00
2022-08-02T00:54:40.981Z,5.60
2022-08-02T00:55:40.979Z,6.70
2022-08-02T00:56:40.981Z,4.50
2022-08-02T00:57:40.974Z,4.70
2022-08-02T00:58:40.971Z,4.40
2022-08-02T00:59:40.967Z,5.30
2022-08-02T01:00:40.975Z,4.50
2022-08-02T01:01:56.235Z,5.20
2022-08-02T01:02:40.966Z,6.30
2022-08-02T01:03:40.957Z,5.00
2022-08-02T01:04:40.955Z,5.40
2022-08-02T01:06:10.182Z,5.40
2022-08-02T01:06:40.950Z,4.10
2022-08-02T01:07:40.947Z,3.50
2022-08-02T01:08:40.944Z,4.00
2022-08-02T01:09:40.937Z,6.30
2022-08-02T01:10:40.942Z,4.50
2022-08-02T01:11:40.936Z,6.70
2022-08-02T01:12:40.938Z,5.40
2022-08-02T01:13:40.934Z,5.50
2022-08-02T01:14:40.942Z,4.20
2022-08-02T01:15:40.927Z,3.90
2022-08-02T01:16:40.925Z,5.10
2022-08-02T01:17:40.920Z,6.20
2022-08-02T01:18:40.918Z,4.90
2022-08-02T01:19:40.915Z,4.70
2022-08-02T01:20:40.910Z,6.10
2022-08-02T01:21:40.911Z,6.40
2022-08-02T01:23:00.641Z,4.40
2022-08-02T01:23:40.905Z,4.60
2022-08-02T01:24:40.902Z,3.90
2022-08-02T01:25:40.908Z,4.90
2022-08-02T01:26:40.897Z,6.80
2022-08-02T01:27:40.893Z,3.90
2022-08-02T01:28:40.892Z,6.00
2022-08-02T01:29:40.886Z,6.30
2022-08-02T01:30:40.889Z,3.80
2022-08-02T01:31:40.882Z,5.40
2022-08-02T01:32:40.881Z,5.00
2022-08-02T01:33:40.877Z,4.20
2022-08-02T01:34:40.873Z,3.70
2022-08-02T01:35:50.623Z,5.90
2022-08-02T01:36:40.867Z,4.90
2022-08-02T01:37:40.865Z,5.20
2022-08-02T01:38:40.865Z,4.90
2022-08-02T01:39:40.858Z,5.00
2022-08-02T01:40:40.860Z,5.10
2022-08-02T01:41:40.855Z,5.40
2022-08-02T01:42:40.853Z,6.40
2022-08-02T01:43:40.856Z,4.00
2022-08-02T01:44:40.910Z,3.70
2022-08-02T01:45:40.841Z,5.90
2022-08-02T01:46:40.842Z,5.80
2022-08-02T01:47:40.839Z,5.70
2022-08-02T01:48:40.836Z,4.70
2022-08-02T01:49:40.970Z,5.10
2022-08-02T01:50:40.831Z,4.30
2022-08-02T01:51:40.832Z,4.10
2022-08-02T01:52:40.828Z,7.00
2022-08-02T01:53:40.823Z,5.00
2022-08-02T01:54:40.822Z,4.90
2022-08-02T01:55:57.698Z,5.60
2022-08-02T01:56:40.819Z,3.70
2022-08-02T01:57:41.982Z,5.70
2022-08-02T01:58:40.814Z,8.00
2022-08-02T01:59:40.809Z,4.40
2022-08-02T02:00:40.808Z,3.70
2022-08-02T02:01:40.852Z,4.70
2022-08-02T02:02:40.805Z,5.20
2022-08-02T02:03:41.597Z,4.60
2022-08-02T02:04:40.792Z,4.70
2022-08-02T02:05:40.794Z,4.50
2022-08-02T02:06:40.788Z,5.10
2022-08-02T02:07:40.787Z,6.20
2022-08-02T02:08:40.783Z,4.60
2022-08-02T02:09:50.451Z,3.60
2022-08-02T02:10:40.778Z,4.90
2022-08-02T02:12:05.182Z,4.60
2022-08-02T02:12:40.773Z,4.20
2022-08-02T02:13:40.768Z,5.90
2022-08-02T02:14:40.768Z,5.30
2022-08-02T02:15:40.845Z,5.50
2022-08-02T02:16:40.765Z,4.80
2022-08-02T02:18:10.658Z,5.30
2022-08-02T02:18:40.757Z,4.80
2022-08-02T02:19:40.756Z,4.90
2022-08-02T02:20:40.750Z,5.20
2022-08-02T02:21:41.470Z,5.20
2022-08-02T02:22:40.743Z,4.80
2022-08-02T02:23:40.833Z,5.80
2022-08-02T02:24:40.740Z,5.10
2022-08-02T02:25:40.732Z,8.80
2022-08-02T02:26:40.737Z,6.80
2022-08-02T02:27:40.735Z,5.00
2022-08-02T02:28:40.727Z,4.40
2022-08-02T02:29:40.723Z,7.10
2022-08-02T02:30:40.723Z,4.00
2022-08-02T02:31:40.717Z,4.20
2022-08-02T02:32:40.715Z,3.80
2022-08-02T02:33:40.714Z,5.60
2022-08-02T02:34:40.709Z,7.10
2022-08-02T02:35:40.708Z,6.70
2022-08-02T02:36:40.705Z,4.30
2022-08-02T02:37:40.701Z,4.90
2022-08-02T02:38:40.700Z,7.30
2022-08-02T02:39:40.694Z,5.70
2022-08-02T02:40:40.691Z,5.20
2022-08-02T02:41:40.689Z,6.40
2022-08-02T02:42:41.182Z,7.60
2022-08-02T02:43:40.683Z,6.20
2022-08-02T02:44:40.680Z,6.90
2022-08-02T02:45:40.679Z,8.40
2022-08-02T02:46:40.672Z,8.20
2022-08-02T02:47:41.823Z,6.90
2022-08-02T02:48:40.667Z,7.60
2022-08-02T02:49:40.663Z,5.90
2022-08-02T02:50:40.662Z,6.60
2022-08-02T02:51:40.667Z,6.40
2022-08-02T02:52:40.653Z,5.40
2022-08-02T02:54:31.939Z,5.80
2022-08-02T02:54:40.650Z,5.90
2022-08-02T02:55:40.646Z,5.40
2022-08-02T02:56:40.643Z,9.80
2022-08-02T02:57:40.640Z,5.00
2022-08-02T02:58:40.650Z,6.10
2022-08-02T02:59:48.959Z,6.70
2022-08-02T03:00:40.670Z,6.40
2022-08-02T03:01:56.865Z,6.20
2022-08-02T03:02:40.623Z,6.10
2022-08-02T03:03:40.621Z,8.50
2022-08-02T03:04:57.026Z,9.00
2022-08-02T03:05:40.615Z,7.10
2022-08-02T03:06:40.611Z,5.80
2022-08-02T03:07:40.608Z,7.30
2022-08-02T03:08:40.608Z,7.50
2022-08-02T03:09:40.602Z,8.80
2022-08-02T03:10:40.597Z,5.60
2022-08-02T03:11:40.599Z,6.00
2022-08-02T03:12:40.589Z,5.40
2022-08-02T03:13:40.587Z,5.80
2022-08-02T03:14:40.586Z,7.60
2022-08-02T03:15:40.585Z,7.40
2022-08-02T03:16:40.576Z,7.30
2022-08-02T03:17:40.570Z,7.50
2022-08-02T03:18:40.572Z,7.10
2022-08-02T03:19:40.567Z,9.80
2022-08-02T03:20:40.564Z,7.30
2022-08-02T03:21:40.559Z,8.40
2022-08-02T03:22:40.556Z,9.20
2022-08-02T03:23:40.554Z,6.20
2022-08-02T03:24:40.549Z,7.80
2022-08-02T03:25:40.546Z,8.10
2022-08-02T03:26:40.543Z,9.20
2022-08-02T03:27:40.542Z,7.00
2022-08-02T03:28:40.536Z,8.30
2022-08-02T03:29:40.532Z,6.60
2022-08-02T03:30:40.532Z,8.00
2022-08-02T03:31:40.527Z,9.00
2022-08-02T03:32:40.526Z,6.50
2022-08-02T03:33:40.521Z,6.10
2022-08-02T03:34:40.516Z,8.70
2022-08-02T03:35:40.508Z,7.30
2022-08-02T03:36:40.509Z,10.40
2022-08-02T03:37:40.505Z,5.90
2022-08-02T03:38:40.501Z,7.30
2022-08-02T03:39:51.091Z,7.00
2022-08-02T03:40:40.496Z,7.90
2022-08-02T03:41:40.490Z,8.40
2022-08-02T03:42:40.487Z,6.40
2022-08-02T03:43:40.479Z,6.80
2022-08-02T03:44:40.479Z,8.80
2022-08-02T03:45:40.476Z,8.20
2022-08-02T03:46:40.476Z,9.10
2022-08-02T03:47:40.471Z,9.20
2022-08-02T03:48:40.465Z,8.00
2022-08-02T03:49:40.550Z,6.20
2022-08-02T03:50:40.459Z,8.50
2022-08-02T03:51:40.456Z,8.40
2022-08-02T03:52:40.452Z,7.60
2022-08-02T03:53:40.449Z,8.30
2022-08-02T03:54:45.602Z,6.70
2022-08-02T03:55:40.439Z,6.50
2022-08-02T03:56:40.442Z,7.20
2022-08-02T03:57:40.437Z,6.60
2022-08-02T03:58:40.427Z,8.50
2022-08-02T03:59:40.430Z,7.50
2022-08-02T04:00:40.454Z,7.90
2022-08-02T04:01:40.424Z,7.80
2022-08-02T04:02:40.419Z,5.90
2022-08-02T04:03:40.417Z,5.50
2022-08-02T04:04:40.413Z,5.80
2022-08-02T04:06:03.920Z,7.60
2022-08-02T04:06:41.761Z,8.70
2022-08-02T04:08:32.681Z,7.30
2022-08-02T04:08:40.400Z,6.90
2022-08-02T04:09:40.404Z,8.00
2022-08-02T04:10:40.395Z,7.00
2022-08-02T04:11:40.391Z,8.00
2022-08-02T04:12:40.387Z,6.60
2022-08-02T04:13:40.381Z,7.60
2022-08-02T04:14:40.384Z,7.20
2022-08-02T04:15:40.379Z,7.20
2022-08-02T04:16:40.374Z,10.00
2022-08-02T04:17:40.370Z,8.50
2022-08-02T04:18:40.372Z,7.10
2022-08-02T04:19:40.366Z,7.30
2022-08-02T04:20:40.362Z,8.80
2022-08-02T04:21:49.267Z,7.40
2022-08-02T04:22:40.366Z,8.30
2022-08-02T04:23:40.355Z,6.90
2022-08-02T04:24:40.351Z,7.40
2022-08-02T04:25:41.343Z,8.50
2022-08-02T04:26:40.343Z,6.50
2022-08-02T04:28:15.650Z,7.30
2022-08-02T04:28:40.385Z,7.80
2022-08-02T04:29:43.940Z,7.90
2022-08-02T04:30:40.329Z,7.50
2022-08-02T04:31:40.327Z,8.10
2022-08-02T04:32:40.321Z,6.90
2022-08-02T04:33:40.324Z,7.10
2022-08-02T04:34:40.321Z,8.20
2022-08-02T04:35:40.320Z,6.90
2022-08-02T04:36:40.317Z,7.80
2022-08-02T04:38:08.837Z,8.30
2022-08-02T04:38:40.308Z,7.20
2022-08-02T04:39:40.303Z,6.50
2022-08-02T04:40:40.307Z,7.60
2022-08-02T04:41:43.723Z,5.90
2022-08-02T04:42:40.291Z,7.00
2022-08-02T04:43:40.291Z,9.00
2022-08-02T04:44:40.286Z,7.60
2022-08-02T04:45:40.283Z,7.20
2022-08-02T04:46:40.280Z,11.90
2022-08-02T04:48:03.680Z,8.70
2022-08-02T04:48:40.275Z,7.40
2022-08-02T04:49:40.383Z,8.40
2022-08-02T04:50:40.267Z,7.00
2022-08-02T04:51:40.268Z,9.30
2022-08-02T04:52:45.446Z,7.70
2022-08-02T04:53:40.260Z,10.80
2022-08-02T04:54:40.257Z,11.30
2022-08-02T04:55:40.254Z,8.30
2022-08-02T04:56:40.255Z,10.60
2022-08-02T04:57:40.247Z,6.70
2022-08-02T04:58:41.005Z,7.80
2022-08-02T04:59:40.243Z,8.20
2022-08-02T05:00:40.295Z,8.40
2022-08-02T05:01:40.240Z,8.90
2022-08-02T05:02:40.237Z,9.10
2022-08-02T05:03:40.233Z,11.40
2022-08-02T05:04:40.230Z,11.30
2022-08-02T05:05:40.226Z,10.30
2022-08-02T05:06:40.221Z,11.30
2022-08-02T05:07:40.224Z,11.60
2022-08-02T05:08:40.219Z,9.20
2022-08-02T05:09:40.218Z,9.80
2022-08-02T05:10:40.216Z,10.50
2022-08-02T05:11:40.213Z,11.30
2022-08-02T05:12:40.210Z,9.10
2022-08-02T05:13:58.744Z,11.80
2022-08-02T05:14:40.207Z,10.90
2022-08-02T05:15:40.206Z,9.80
2022-08-02T05:16:40.203Z,10.00
2022-08-02T05:17:47.586Z,10.90
2022-08-02T05:18:40.199Z,11.80
2022-08-02T05:19:40.199Z,10.90
2022-08-02T05:20:40.198Z,11.40
2022-08-02T05:21:40.197Z,9.70
2022-08-02T05:22:40.198Z,12.00
2022-08-02T05:23:40.196Z,10.50
2022-08-02T05:24:40.193Z,11.50
2022-08-02T05:25:40.192Z,11.90
2022-08-02T05:26:40.195Z,12.80
2022-08-02T05:27:40.199Z,12.20
2022-08-02T05:28:40.190Z,11.10
2022-08-02T05:29:40.191Z,12.40
2022-08-02T05:30:40.191Z,13.30
2022-08-02T05:31:40.192Z,13.50
2022-08-02T05:32:40.190Z,14.90
2022-08-02T05:33:40.187Z,14.70
2022-08-02T05:34:40.194Z,13.70
2022-08-02T05:35:40.190Z,13.10
2022-08-02T05:36:42.176Z,12.50
2022-08-02T05:37:40.189Z,12.20
2022-08-02T05:38:40.188Z,11.70
2022-08-02T05:39:55.602Z,12.00
2022-08-02T05:40:54.586Z,14.20
2022-08-02T05:41:40.188Z,12.90
2022-08-02T05:42:40.191Z,12.80
2022-08-02T05:43:40.190Z,15.00
2022-08-02T05:44:40.190Z,14.30
2022-08-02T05:45:40.188Z,14.70
2022-08-02T05:46:40.191Z,13.60
2022-08-02T05:47:40.195Z,15.40
2022-08-02T05:48:40.195Z,15.30
2022-08-02T05:49:40.253Z,15.40
2022-08-02T05:50:40.196Z,15.10
2022-08-02T05:51:40.199Z,15.80
2022-08-02T05:52:40.200Z,15.20
2022-08-02T05:53:40.249Z,16.00
2022-08-02T05:54:40.208Z,1999.90
2022-08-02T05:55:40.203Z,1999.90
2022-08-02T05:56:40.202Z,8.70
2022-08-02T05:57:43.407Z,11.40
2022-08-02T05:58:40.206Z,16.10
2022-08-02T05:59:40.210Z,1999.90
2022-08-02T06:00:40.209Z,1999.90
2022-08-02T06:01:40.351Z,1999.90
2022-08-02T06:02:40.213Z,1999.90
2022-08-02T06:03:40.214Z,1999.90
2022-08-02T06:04:40.217Z,1999.90
2022-08-02T06:05:40.218Z,1999.90
2022-08-02T06:06:40.222Z,1999.90
2022-08-02T06:07:40.222Z,1999.90
2022-08-02T06:08:42.510Z,1999.90
2022-08-02T06:09:40.229Z,1999.90
2022-08-02T06:10:40.234Z,1999.90
2022-08-02T06:11:40.237Z,1999.90
2022-08-02T06:12:40.235Z,1999.90
2022-08-02T06:13:40.240Z,1999.90
2022-08-02T06:14:40.247Z,14.00
2022-08-02T06:15:52.857Z,14.60
2022-08-02T06:16:41.979Z,14.00
2022-08-02T06:17:41.940Z,14.10
2022-08-02T06:18:40.248Z,14.60
2022-08-02T06:19:51.760Z,13.40
2022-08-02T06:20:40.258Z,13.60
2022-08-02T06:22:34.575Z,16.60
2022-08-02T06:22:40.462Z,17.10
2022-08-02T06:23:40.271Z,14.80
2022-08-02T06:24:40.271Z,1999.90
2022-08-02T06:25:50.407Z,1999.90
2022-08-02T06:26:40.276Z,17.50
2022-08-02T06:27:40.278Z,16.20
2022-08-02T06:28:40.280Z,14.80
2022-08-02T06:29:40.287Z,13.50
2022-08-02T06:30:40.294Z,13.00
2022-08-02T06:31:40.305Z,13.90
2022-08-02T06:32:40.298Z,14.00
2022-08-02T06:33:40.303Z,13.60
2022-08-02T06:34:40.307Z,14.30
2022-08-02T06:35:40.309Z,14.90
2022-08-02T06:36:40.312Z,12.80
2022-08-02T06:37:40.318Z,9.20
2022-08-02T06:38:40.321Z,12.40
2022-08-02T06:39:40.326Z,8.10
2022-08-02T06:40:40.328Z,7.90
2022-08-02T06:41:40.335Z,8.30
2022-08-02T06:42:40.332Z,10.90
2022-08-02T06:43:40.351Z,7.90
2022-08-02T06:44:48.989Z,7.30
2022-08-02T06:45:40.347Z,9.20
2022-08-02T06:47:11.091Z,8.80
2022-08-02T06:47:40.361Z,7.80
2022-08-02T06:48:40.361Z,7.90
2022-08-02T06:49:52.382Z,7.50
2022-08-02T06:50:40.368Z,8.30
2022-08-02T06:51:40.373Z,8.40
2022-08-02T06:52:40.377Z,6.60
2022-08-02T06:53:40.387Z,6.80
2022-08-02T06:54:40.386Z,6.40
2022-08-02T06:55:43.996Z,8.40
2022-08-02T06:56:40.398Z,7.60
2022-08-02T06:57:40.405Z,8.00
2022-08-02T06:58:40.403Z,6.50
2022-08-02T06:59:40.409Z,6.40
2022-08-02T07:00:40.411Z,5.40
2022-08-02T07:01:40.457Z,7.00
2022-08-02T07:02:40.455Z,6.90
2022-08-02T07:03:40.427Z,6.00
2022-08-02T07:04:40.432Z,6.00
2022-08-02T07:05:40.436Z,7.40
2022-08-02T07:06:40.441Z,5.80
2022-08-02T07:07:40.445Z,8.10
2022-08-02T07:08:40.457Z,6.30
2022-08-02T07:09:56.603Z,7.80
2022-08-02T07:10:40.460Z,6.70
2022-08-02T07:11:40.469Z,7.50
2022-08-02T07:12:40.468Z,5.40
2022-08-02T07:13:40.477Z,7.50
2022-08-02T07:14:40.481Z,6.20
2022-08-02T07:15:40.487Z,6.90
2022-08-02T07:16:40.487Z,6.60
2022-08-02T07:17:40.494Z,6.40
2022-08-02T07:18:40.497Z,6.70
2022-08-02T07:19:40.504Z,7.50
2022-08-02T07:20:40.506Z,8.60
2022-08-02T07:21:56.743Z,7.00
2022-08-02T07:22:40.515Z,5.70
2022-08-02T07:23:40.524Z,6.20
2022-08-02T07:24:40.534Z,7.20
2022-08-02T07:26:03.979Z,7.30
2022-08-02T07:27:01.540Z,8.20
2022-08-02T07:27:40.542Z,6.80
2022-08-02T07:28:40.544Z,8.40
2022-08-02T07:29:46.502Z,6.90
2022-08-02T07:30:40.555Z,7.10
2022-08-02T07:31:40.564Z,6.50
2022-08-02T07:32:40.567Z,7.00
2022-08-02T07:33:43.297Z,7.00
2022-08-02T07:34:40.576Z,8.20
2022-08-02T07:35:40.579Z,7.70
2022-08-02T07:36:40.586Z,6.90
2022-08-02T07:37:55.660Z,5.70
2022-08-02T07:38:40.598Z,6.80
2022-08-02T07:39:40.601Z,6.60
2022-08-02T07:40:40.607Z,9.00
2022-08-02T07:41:40.613Z,8.00
2022-08-02T07:42:40.622Z,9.10
2022-08-02T07:43:40.626Z,7.80
2022-08-02T07:44:40.631Z,7.60
2022-08-02T07:45:45.665Z,7.10
2022-08-02T07:46:40.644Z,7.30
2022-08-02T07:47:40.645Z,7.90
2022-08-02T07:48:40.652Z,9.50
2022-08-02T07:49:40.686Z,7.40
2022-08-02T07:50:40.665Z,7.40
2022-08-02T07:51:40.675Z,6.90
2022-08-02T07:52:40.722Z,7.30
2022-08-02T07:53:50.635Z,7.00
2022-08-02T07:54:40.689Z,8.20
2022-08-02T07:55:40.900Z,7.70
2022-08-02T07:56:40.708Z,6.70
2022-08-02T07:57:45.782Z,6.40
2022-08-02T07:58:40.712Z,6.40
2022-08-02T07:59:40.718Z,6.10
2022-08-02T08:00:40.725Z,7.90
2022-08-02T08:01:40.790Z,7.20
2022-08-02T08:02:40.736Z,9.30
2022-08-02T08:03:40.745Z,7.30
2022-08-02T08:04:40.751Z,8.20
2022-08-02T08:05:40.782Z,8.80
2022-08-02T08:06:40.756Z,7.70
2022-08-02T08:07:40.775Z,6.70
2022-08-02T08:08:40.801Z,6.50
2022-08-02T08:09:40.775Z,6.80
2022-08-02T08:10:40.788Z,6.20
2022-08-02T08:11:40.796Z,7.80
2022-08-02T08:12:40.806Z,7.40
2022-08-02T08:13:40.801Z,7.50
2022-08-02T08:14:40.809Z,7.20
2022-08-02T08:15:40.814Z,6.70
2022-08-02T08:16:40.822Z,6.50
2022-08-02T08:17:40.827Z,6.00
2022-08-02T08:18:40.832Z,7.40
2022-08-02T08:19:50.847Z,6.00
2022-08-02T08:20:40.846Z,6.70
2022-08-02T08:21:40.853Z,6.10
2022-08-02T08:22:40.858Z,6.20
2022-08-02T08:23:40.865Z,6.50
2022-08-02T08:24:40.869Z,6.30
2022-08-02T08:25:41.334Z,6.00
2022-08-02T08:26:40.885Z,7.30
2022-08-02T08:27:40.891Z,6.80
2022-08-02T08:28:40.893Z,7.00
2022-08-02T08:29:40.899Z,7.40
2022-08-02T08:30:40.906Z,7.40
2022-08-02T08:31:40.908Z,5.80
2022-08-02T08:32:40.914Z,6.80
2022-08-02T08:33:40.917Z,6.60
2022-08-02T08:34:40.921Z,7.40
2022-08-02T08:35:40.928Z,7.90
2022-08-02T08:36:40.929Z,6.50
2022-08-02T08:37:40.939Z,6.00
2022-08-02T08:38:40.940Z,7.40
2022-08-02T08:39:42.046Z,6.70
2022-08-02T08:40:40.947Z,5.40
2022-08-02T08:41:40.951Z,5.10
2022-08-02T08:42:40.957Z,5.00
2022-08-02T08:43:40.956Z,6.10
2022-08-02T08:44:41.145Z,5.40
2022-08-02T08:45:40.963Z,5.30
2022-08-02T08:46:40.965Z,4.00
2022-08-02T08:47:40.977Z,7.40
2022-08-02T08:48:40.972Z,6.00
2022-08-02T08:49:52.854Z,3.90
2022-08-02T08:50:40.977Z,4.70
2022-08-02T08:51:40.981Z,4.00
2022-08-02T08:52:40.982Z,5.10
2022-08-02T08:53:41.136Z,4.70
2022-08-02T08:54:41.061Z,4.70
2022-08-02T08:55:40.991Z,5.60
2022-08-02T08:56:40.992Z,6.30
2022-08-02T08:57:40.998Z,5.40
2022-08-02T08:58:41.003Z,4.60
2022-08-02T08:59:41.006Z,5.80
2022-08-02T09:00:41.006Z,4.30
2022-08-02T09:01:49.809Z,5.70
2022-08-02T09:02:41.011Z,5.10
2022-08-02T09:03:41.013Z,3.50
2022-08-02T09:04:41.021Z,4.40
2022-08-02T09:05:41.021Z,5.50
2022-08-02T09:06:41.024Z,4.50
2022-08-02T09:07:41.027Z,4.60
2022-08-02T09:08:41.030Z,5.40
2022-08-02T09:09:41.035Z,4.40
2022-08-02T09:10:41.040Z,4.90
2022-08-02T09:11:41.042Z,5.20
2022-08-02T09:12:41.046Z,4.70
2022-08-02T09:13:46.138Z,5.50
2022-08-02T09:14:41.049Z,4.40
2022-08-02T09:15:41.059Z,4.40
2022-08-02T09:16:41.053Z,6.30
2022-08-02T09:17:41.058Z,5.20
2022-08-02T09:18:41.060Z,5.90
2022-08-02T09:19:46.274Z,5.00
2022-08-02T09:20:41.064Z,4.60
2022-08-02T09:21:41.066Z,4.90
2022-08-02T09:22:41.068Z,4.20
2022-08-02T09:23:41.074Z,5.90
2022-08-02T09:24:41.070Z,5.20
2022-08-02T09:25:41.077Z,4.40
2022-08-02T09:26:41.080Z,5.10
2022-08-02T09:27:41.081Z,5.50
2022-08-02T09:28:41.080Z,5.60
2022-08-02T09:30:05.251Z,5.70
2022-08-02T09:30:41.088Z,3.70
2022-08-02T09:31:49.411Z,5.70
2022-08-02T09:32:41.089Z,4.30
2022-08-02T09:33:41.092Z,5.50
2022-08-02T09:34:41.093Z,6.30
2022-08-02T09:36:05.235Z,6.60
2022-08-02T09:36:41.098Z,5.50
2022-08-02T09:37:42.044Z,5.10
2022-08-02T09:38:41.102Z,5.50
2022-08-02T09:39:41.103Z,4.40
2022-08-02T09:40:41.107Z,6.00
2022-08-02T09:41:41.107Z,4.50
2022-08-02T09:42:41.111Z,4.90
2022-08-02T09:44:03.220Z,7.10
2022-08-02T09:44:41.111Z,4.20
2022-08-02T09:45:41.113Z,4.20
2022-08-02T09:46:41.117Z,4.10
2022-08-02T09:47:41.116Z,4.80
2022-08-02T09:48:41.117Z,7.80
2022-08-02T09:49:41.203Z,5.70
2022-08-02T09:50:41.123Z,7.10
2022-08-02T09:51:41.121Z,5.10
2022-08-02T09:52:43.697Z,6.40
2022-08-02T09:53:41.122Z,6.00
2022-08-02T09:54:41.130Z,5.80
2022-08-02T09:55:41.131Z,5.00
2022-08-02T09:56:41.135Z,5.10
2022-08-02T09:57:41.131Z,5.60
2022-08-02T09:58:41.135Z,4.00
2022-08-02T09:59:41.134Z,4.10
2022-08-02T10:00:52.541Z,5.30
2022-08-02T10:01:46.997Z,5.80
2022-08-02T10:02:41.165Z,4.70
2022-08-02T10:03:41.143Z,5.70
2022-08-02T10:04:52.326Z,5.80
2022-08-02T10:05:43.645Z,4.40
2022-08-02T10:06:41.145Z,4.20
2022-08-02T10:07:41.145Z,6.40
2022-08-02T10:08:41.146Z,5.10
2022-08-02T10:09:46.384Z,5.40
2022-08-02T10:10:41.150Z,5.10
2022-08-02T10:11:41.153Z,6.80
2022-08-02T10:12:41.153Z,7.30
2022-08-02T10:13:41.156Z,7.10
2022-08-02T10:14:41.157Z,5.50
2022-08-02T10:15:50.281Z,7.10
2022-08-02T10:16:41.158Z,5.40
2022-08-02T10:17:41.159Z,6.20
2022-08-02T10:18:41.709Z,5.40
2022-08-02T10:20:02.754Z,6.20
2022-08-02T10:20:41.164Z,5.80
2022-08-02T10:21:46.304Z,5.10
2022-08-02T10:22:41.167Z,4.90
2022-08-02T10:23:41.166Z,6.00
2022-08-02T10:24:48.285Z,4.90
2022-08-02T10:25:41.168Z,4.20
2022-08-02T10:26:41.174Z,4.60
2022-08-02T10:28:04.228Z,5.80
2022-08-02T10:28:41.168Z,5.60
2022-08-02T10:29:50.484Z,4.10
2022-08-02T10:30:41.175Z,5.20
2022-08-02T10:31:41.179Z,4.70
2022-08-02T10:32:41.180Z,5.40
2022-08-02T10:33:41.192Z,4.80
2022-08-02T10:34:41.182Z,5.00
2022-08-02T10:35:41.184Z,3.90
2022-08-02T10:36:41.183Z,4.20
2022-08-02T10:37:41.184Z,5.50
2022-08-02T10:38:41.190Z,4.20
2022-08-02T10:39:41.189Z,3.80
2022-08-02T10:40:41.189Z,3.40
2022-08-02T10:41:41.189Z,4.90
2022-08-02T10:42:41.194Z,5.00
2022-08-02T10:43:41.193Z,4.70
2022-08-02T10:44:41.194Z,4.10
2022-08-02T10:45:41.196Z,3.70
2022-08-02T10:46:41.201Z,4.80
2022-08-02T10:47:41.200Z,4.00
2022-08-02T10:48:41.201Z,2.90
2022-08-02T10:49:41.297Z,4.20
2022-08-02T10:50:41.205Z,4.40
2022-08-02T10:51:41.273Z,5.70
2022-08-02T10:52:41.222Z,4.60
2022-08-02T10:53:41.209Z,4.80
2022-08-02T10:54:41.210Z,3.90
2022-08-02T10:55:41.214Z,3.60
2022-08-02T10:56:41.213Z,3.90
2022-08-02T10:57:41.214Z,3.60
2022-08-02T10:58:41.218Z,5.70
2022-08-02T10:59:41.218Z,4.50
2022-08-02T11:00:41.267Z,5.00
2022-08-02T11:01:41.259Z,3.80
2022-08-02T11:02:41.228Z,3.70
2022-08-02T11:03:41.260Z,3.90
2022-08-02T11:04:41.233Z,3.80
2022-08-02T11:05:43.042Z,4.70
2022-08-02T11:06:41.230Z,4.10
2022-08-02T11:07:41.232Z,5.90
2022-08-02T11:08:41.237Z,4.60
2022-08-02T11:09:41.238Z,3.50
2022-08-02T11:10:41.234Z,3.80
2022-08-02T11:11:53.761Z,3.30
2022-08-02T11:12:41.236Z,4.30
2022-08-02T11:13:41.237Z,4.60
2022-08-02T11:14:41.240Z,4.10
2022-08-02T11:15:41.244Z,4.40
2022-08-02T11:16:41.245Z,5.00
2022-08-02T11:17:41.267Z,3.60
2022-08-02T11:18:41.248Z,3.50
2022-08-02T11:19:41.531Z,3.20
2022-08-02T11:20:41.249Z,5.50
2022-08-02T11:21:41.250Z,4.40
2022-08-02T11:22:41.251Z,4.70
2022-08-02T11:23:44.755Z,4.50
2022-08-02T11:24:41.255Z,4.70
2022-08-02T11:26:03.315Z,4.50
2022-08-02T11:26:41.261Z,4.10
2022-08-02T11:27:41.260Z,3.20
2022-08-02T11:28:41.257Z,4.00
2022-08-02T11:29:41.268Z,4.90
2022-08-02T11:30:41.264Z,5.50
2022-08-02T11:31:41.308Z,4.90
2022-08-02T11:32:41.263Z,5.20
2022-08-02T11:33:41.272Z,4.00
2022-08-02T11:34:41.269Z,4.40
2022-08-02T11:35:41.269Z,4.10
2022-08-02T11:36:41.274Z,5.70
2022-08-02T11:37:41.274Z,4.70
2022-08-02T11:38:41.276Z,4.20
2022-08-02T11:39:41.277Z,4.70
2022-08-02T11:40:41.274Z,4.80
2022-08-02T11:41:47.016Z,3.10
2022-08-02T11:42:41.277Z,4.30
2022-08-02T11:43:41.279Z,3.90
2022-08-02T11:44:41.282Z,3.10
2022-08-02T11:45:41.282Z,4.40
2022-08-02T11:46:41.284Z,4.50
2022-08-02T11:47:41.294Z,5.20
2022-08-02T11:48:41.289Z,4.10
2022-08-02T11:49:41.399Z,5.00
2022-08-02T11:50:41.290Z,6.20
2022-08-02T11:51:42.479Z,4.80
2022-08-02T11:52:41.285Z,7.10
2022-08-02T11:53:41.290Z,5.70
2022-08-02T11:54:41.293Z,4.90
2022-08-02T11:55:41.292Z,4.30
2022-08-02T11:56:41.295Z,3.90
2022-08-02T11:58:02.982Z,3.50
2022-08-02T11:58:41.847Z,4.80
2022-08-02T11:59:41.299Z,3.60
2022-08-02T12:00:41.302Z,3.60
2022-08-02T12:01:45.013Z,6.40
2022-08-02T12:02:41.304Z,3.60
2022-08-02T12:03:41.358Z,5.90
2022-08-02T12:04:41.309Z,3.60
2022-08-02T12:06:04.765Z,4.90
2022-08-02T12:06:41.309Z,5.80
2022-08-02T12:07:46.054Z,3.40
2022-08-02T12:08:41.311Z,4.00
2022-08-02T12:09:41.488Z,4.90
2022-08-02T12:10:41.318Z,4.70
2022-08-02T12:11:41.324Z,5.00
2022-08-02T12:12:41.324Z,4.00
2022-08-02T12:13:41.317Z,4.20
2022-08-02T12:14:41.320Z,4.50
2022-08-02T12:15:41.323Z,3.20
2022-08-02T12:16:41.326Z,6.00
2022-08-02T12:17:41.323Z,4.60
2022-08-02T12:18:41.326Z,4.00
2022-08-02T12:19:41.326Z,3.10
2022-08-02T12:20:41.328Z,3.80
2022-08-02T12:21:41.328Z,4.40
2022-08-02T12:22:42.081Z,5.10
2022-08-02T12:23:59.940Z,4.60
2022-08-02T12:24:41.336Z,5.00
2022-08-02T12:25:41.336Z,6.40
2022-08-02T12:26:41.336Z,4.70
2022-08-02T12:27:41.364Z,4.70
2022-08-02T12:28:41.341Z,4.20
2022-08-02T12:29:59.228Z,3.90
2022-08-02T12:30:41.342Z,4.80
2022-08-02T12:31:55.823Z,4.20
2022-08-02T12:32:41.345Z,3.30
2022-08-02T12:33:41.347Z,3.30
2022-08-02T12:34:41.348Z,6.00
2022-08-02T12:35:41.350Z,6.20
2022-08-02T12:36:41.347Z,3.50
2022-08-02T12:37:41.349Z,6.00
2022-08-02T12:38:41.353Z,4.70
2022-08-02T12:39:41.354Z,3.30
2022-08-02T12:40:41.359Z,4.70
2022-08-02T12:41:54.762Z,2.90
2022-08-02T12:42:41.363Z,5.20
2022-08-02T12:43:41.358Z,3.40
2022-08-02T12:44:41.363Z,4.70
2022-08-02T12:45:43.272Z,5.20
2022-08-02T12:46:42.244Z,2.90
2022-08-02T12:47:41.365Z,4.40
2022-08-02T12:48:56.580Z,3.70
2022-08-02T12:49:41.396Z,4.40
2022-08-02T12:50:41.370Z,4.30
2022-08-02T12:51:56.512Z,4.60
2022-08-02T12:52:41.373Z,4.80
2022-08-02T12:53:41.372Z,3.80
2022-08-02T12:54:41.379Z,4.00
2022-08-02T12:56:02.572Z,5.40
2022-08-02T12:56:41.376Z,3.70
2022-08-02T12:57:42.805Z,3.70
2022-08-02T12:58:41.379Z,3.70
2022-08-02T12:59:41.390Z,4.30
2022-08-02T13:00:41.384Z,2.90
2022-08-02T13:01:41.432Z,3.50
2022-08-02T13:02:41.386Z,3.00
2022-08-02T13:04:10.270Z,4.90
2022-08-02T13:04:41.548Z,5.70
2022-08-02T13:05:57.198Z,6.10
2022-08-02T13:06:45.503Z,3.80
2022-08-02T13:07:41.394Z,4.20
2022-08-02T13:08:41.394Z,5.30
2022-08-02T13:09:41.395Z,5.50
2022-08-02T13:10:41.397Z,3.60
2022-08-02T13:11:43.005Z,3.10
2022-08-02T13:12:41.406Z,4.40
2022-08-02T13:13:41.401Z,3.60
2022-08-02T13:14:42.266Z,4.00